createdAt,value
2018-11-25T00:00:20.252Z,18.13
2018-11-25T00:02:48.117Z,17.80
2018-11-25T00:05:15.952Z,17.43
2018-11-25T00:07:43.797Z,19.03
2018-11-25T00:10:12.383Z,20.50
2018-11-25T00:12:40.259Z,18.80
2018-11-25T00:15:08.795Z,18.23
2018-11-25T00:17:36.641Z,17.33
2018-11-25T00:20:05.801Z,17.63
2018-11-25T00:22:33.663Z,18.73
2018-11-25T00:25:01.635Z,19.13
2018-11-25T00:27:29.479Z,19.67
2018-11-25T00:29:57.341Z,18.13
2018-11-25T00:32:25.221Z,18.47
2018-11-25T00:34:53.067Z,17.27
2018-11-25T00:37:20.894Z,17.53
2018-11-25T00:39:48.755Z,17.20
2018-11-25T00:42:16.662Z,16.30
2018-11-25T00:44:44.559Z,16.80
2018-11-25T00:47:12.451Z,17.00
2018-11-25T00:49:40.344Z,17.33
2018-11-25T00:52:08.184Z,16.07
2018-11-25T00:54:36.036Z,16.43
2018-11-25T00:57:03.899Z,17.93
2018-11-25T00:59:31.757Z,15.10
2018-11-25T01:01:59.600Z,14.03
2018-11-25T01:04:27.457Z,14.47
2018-11-25T01:06:55.295Z,15.60
2018-11-25T01:09:23.139Z,14.10
2018-11-25T01:11:50.968Z,15.57
2018-11-25T01:14:18.856Z,17.07
2018-11-25T01:16:46.711Z,18.07
2018-11-25T01:19:14.558Z,18.10
2018-11-25T01:21:42.380Z,17.40
2018-11-25T01:24:10.244Z,18.57
2018-11-25T01:26:38.392Z,17.87
2018-11-25T01:29:06.225Z,15.90
2018-11-25T01:31:34.068Z,16.83
2018-11-25T01:34:01.912Z,15.30
2018-11-25T01:36:29.766Z,15.53
2018-11-25T01:38:57.614Z,15.00
2018-11-25T01:41:25.468Z,15.50
2018-11-25T01:43:53.334Z,16.33
2018-11-25T01:46:21.236Z,16.50
2018-11-25T01:48:49.113Z,15.30
2018-11-25T01:51:16.988Z,14.93
2018-11-25T01:53:44.876Z,15.57
2018-11-25T01:56:12.754Z,15.77
2018-11-25T01:58:40.596Z,15.83
2018-11-25T02:01:08.440Z,13.83
2018-11-25T02:03:36.263Z,15.50
2018-11-25T02:06:04.166Z,15.33
2018-11-25T02:08:32.261Z,13.63
2018-11-25T02:11:00.112Z,15.83
2018-11-25T02:13:27.960Z,14.80
2018-11-25T02:15:55.805Z,14.93
2018-11-25T02:18:23.706Z,15.37
2018-11-25T02:20:51.603Z,14.67
2018-11-25T02:23:19.433Z,14.93
2018-11-25T02:25:47.274Z,14.80
2018-11-25T02:28:15.130Z,14.47
2018-11-25T02:30:42.966Z,16.07
2018-11-25T02:33:10.828Z,15.23
2018-11-25T02:35:38.680Z,14.73
2018-11-25T02:38:06.511Z,15.30
2018-11-25T02:40:34.341Z,15.73
2018-11-25T02:43:02.209Z,15.40
2018-11-25T02:45:30.042Z,15.43
2018-11-25T02:47:57.880Z,15.93
2018-11-25T02:50:27.156Z,14.80
2018-11-25T02:52:55.716Z,14.50
2018-11-25T02:55:24.097Z,15.03
2018-11-25T02:57:52.182Z,14.50
2018-11-25T03:00:20.076Z,12.77
2018-11-25T03:02:47.913Z,14.70
2018-11-25T03:05:15.756Z,13.33
2018-11-25T03:07:43.826Z,13.33
2018-11-25T03:10:11.830Z,13.67
2018-11-25T03:12:39.708Z,12.30
2018-11-25T03:15:08.704Z,12.73
2018-11-25T03:17:36.543Z,11.13
2018-11-25T03:20:05.295Z,11.40
2018-11-25T03:22:33.717Z,11.07
2018-11-25T03:25:01.544Z,9.67
2018-11-25T03:27:29.388Z,10.47
2018-11-25T03:29:57.244Z,11.00
2018-11-25T03:32:25.068Z,9.90
2018-11-25T03:34:52.891Z,10.17
2018-11-25T03:38:23.456Z,10.07
2018-11-25T03:40:51.324Z,11.07
2018-11-25T03:43:19.201Z,11.50
2018-11-25T03:45:47.032Z,11.50
2018-11-25T03:48:14.916Z,11.47
2018-11-25T03:50:42.761Z,10.40
2018-11-25T03:53:10.668Z,12.13
2018-11-25T03:55:38.517Z,11.57
2018-11-25T03:58:06.716Z,11.80
2018-11-25T04:00:34.915Z,12.13
2018-11-25T04:03:02.791Z,10.77
2018-11-25T04:05:30.659Z,11.77
2018-11-25T04:07:58.514Z,11.63
2018-11-25T04:10:26.350Z,11.60
2018-11-25T04:12:54.247Z,11.73
2018-11-25T04:15:22.089Z,11.10
2018-11-25T04:17:50.032Z,11.53
2018-11-25T04:20:19.304Z,9.57
2018-11-25T04:22:47.204Z,11.87
2018-11-25T04:25:15.107Z,10.50
2018-11-25T04:27:42.982Z,11.23
2018-11-25T04:30:11.448Z,11.10
2018-11-25T04:32:39.342Z,10.60
2018-11-25T04:35:07.941Z,10.73
2018-11-25T04:37:35.832Z,12.13
2018-11-25T04:40:03.830Z,10.67
2018-11-25T04:42:31.681Z,10.90
2018-11-25T04:44:59.527Z,10.03
2018-11-25T04:47:27.368Z,10.13
2018-11-25T04:49:55.212Z,9.83
2018-11-25T04:52:23.068Z,10.97
2018-11-25T04:54:50.912Z,9.27
2018-11-25T04:57:18.812Z,10.20
2018-11-25T04:59:46.632Z,9.70
2018-11-25T05:02:14.459Z,9.30
2018-11-25T05:04:42.324Z,10.30
2018-11-25T05:07:10.166Z,10.07
2018-11-25T05:09:38.001Z,10.50
2018-11-25T05:12:05.944Z,11.13
2018-11-25T05:14:33.797Z,11.00
2018-11-25T05:17:01.649Z,11.07
2018-11-25T05:19:29.487Z,10.03
2018-11-25T05:21:57.312Z,9.73
2018-11-25T05:24:25.163Z,10.97
2018-11-25T05:26:53.012Z,11.53
2018-11-25T05:29:21.706Z,9.80
2018-11-25T05:31:49.544Z,10.27
2018-11-25T05:34:17.404Z,9.67
2018-11-25T05:36:45.280Z,10.33
2018-11-25T05:39:13.144Z,12.67
2018-11-25T05:41:40.980Z,10.93
2018-11-25T05:44:08.821Z,12.17
2018-11-25T05:46:36.685Z,12.73
2018-11-25T05:49:04.568Z,13.07
2018-11-25T05:51:32.392Z,12.40
2018-11-25T05:54:00.252Z,11.80
2018-11-25T05:56:28.126Z,11.97
2018-11-25T05:58:55.991Z,11.57
2018-11-25T06:01:23.901Z,11.97
2018-11-25T06:03:51.790Z,11.83
2018-11-25T06:06:19.672Z,10.70
2018-11-25T06:08:47.511Z,11.60
2018-11-25T06:11:15.344Z,11.30
2018-11-25T06:13:43.194Z,11.07
2018-11-25T06:16:11.053Z,11.43
2018-11-25T06:18:38.897Z,11.93
2018-11-25T06:21:06.737Z,12.93
2018-11-25T06:23:34.564Z,10.97
2018-11-25T06:26:02.448Z,10.87
2018-11-25T06:28:30.295Z,10.27
2018-11-25T06:30:58.223Z,10.63
2018-11-25T06:33:26.591Z,10.40
2018-11-25T06:35:54.448Z,10.83
2018-11-25T06:38:22.270Z,11.20
2018-11-25T06:40:50.123Z,12.20
2018-11-25T06:43:17.971Z,12.07
2018-11-25T06:45:45.832Z,11.37
2018-11-25T06:48:13.674Z,11.33
2018-11-25T06:50:41.521Z,13.03
2018-11-25T06:53:09.346Z,10.93
2018-11-25T06:55:37.211Z,10.20
2018-11-25T06:58:05.096Z,11.83
2018-11-25T07:00:32.961Z,12.07
2018-11-25T07:03:00.800Z,11.43
2018-11-25T07:05:28.806Z,12.17
2018-11-25T07:07:56.701Z,11.93
2018-11-25T07:10:24.555Z,11.53
2018-11-25T07:12:53.768Z,12.43
2018-11-25T07:15:21.630Z,12.90
2018-11-25T07:17:49.460Z,12.23
2018-11-25T07:20:17.672Z,12.17
2018-11-25T07:22:45.536Z,12.97
2018-11-25T07:25:14.064Z,12.87
2018-11-25T07:27:41.905Z,12.97
2018-11-25T07:30:11.627Z,13.07
2018-11-25T07:32:39.474Z,11.33
2018-11-25T07:35:07.703Z,12.07
2018-11-25T07:37:35.677Z,11.63
2018-11-25T07:40:03.694Z,12.77
2018-11-25T07:42:31.534Z,11.53
2018-11-25T07:44:59.376Z,10.73
2018-11-25T07:47:27.240Z,12.23
2018-11-25T07:49:55.090Z,13.13
2018-11-25T07:52:23.217Z,11.40
2018-11-25T07:54:51.070Z,12.57
2018-11-25T07:57:18.935Z,12.07
2018-11-25T07:59:46.809Z,11.63
2018-11-25T08:02:14.674Z,11.23
2018-11-25T08:04:42.565Z,10.93
2018-11-25T08:07:10.432Z,12.17
2018-11-25T08:09:38.320Z,12.30
2018-11-25T08:12:06.183Z,11.90
2018-11-25T08:14:34.073Z,11.33
2018-11-25T08:17:01.963Z,10.13
2018-11-25T08:19:29.811Z,10.67
2018-11-25T08:21:57.652Z,10.17
2018-11-25T08:24:25.530Z,11.80
2018-11-25T08:26:53.393Z,11.47
2018-11-25T08:29:21.241Z,10.07
2018-11-25T08:31:49.094Z,9.47
2018-11-25T08:34:16.955Z,10.20
2018-11-25T08:36:44.788Z,9.43
2018-11-25T08:39:12.628Z,10.53
2018-11-25T08:41:40.540Z,10.43
2018-11-25T08:44:08.392Z,10.67
2018-11-25T08:46:36.227Z,10.67
2018-11-25T08:49:04.106Z,9.37
2018-11-25T08:51:32.090Z,11.53
2018-11-25T08:53:59.926Z,9.17
2018-11-25T08:56:27.780Z,9.83
2018-11-25T08:58:55.629Z,8.80
2018-11-25T09:01:23.476Z,7.93
2018-11-25T09:03:51.316Z,7.60
2018-11-25T09:06:19.173Z,7.60
2018-11-25T09:08:47.028Z,8.37
2018-11-25T09:11:15.087Z,8.43
2018-11-25T09:13:43.531Z,8.80
2018-11-25T09:16:11.368Z,8.83
2018-11-25T09:18:39.196Z,8.70
2018-11-25T09:21:07.069Z,8.40
2018-11-25T09:23:34.918Z,8.40
2018-11-25T09:26:02.768Z,7.77
2018-11-25T09:28:30.615Z,8.00
2018-11-25T09:30:58.457Z,8.47
2018-11-25T09:33:26.340Z,8.30
2018-11-25T09:35:54.193Z,6.93
2018-11-25T09:38:22.091Z,6.27
2018-11-25T09:40:49.944Z,7.47
2018-11-25T09:43:17.763Z,7.60
2018-11-25T09:45:45.688Z,8.00
2018-11-25T09:48:13.537Z,7.50
2018-11-25T09:50:41.385Z,8.00
2018-11-25T09:53:09.216Z,7.97
2018-11-25T09:55:37.055Z,6.90
2018-11-25T09:58:04.954Z,6.93
2018-11-25T10:00:33.508Z,6.63
2018-11-25T10:03:01.710Z,7.17
2018-11-25T10:05:29.588Z,8.20
2018-11-25T10:07:57.621Z,7.73
2018-11-25T10:10:25.771Z,8.37
2018-11-25T10:12:53.633Z,8.53
2018-11-25T10:15:23.090Z,9.07
2018-11-25T10:17:59.067Z,9.77
2018-11-25T10:20:20.864Z,9.50
2018-11-25T10:22:48.720Z,9.20
2018-11-25T10:25:16.957Z,9.47
2018-11-25T10:27:44.810Z,9.83
2018-11-25T10:30:17.083Z,10.43
2018-11-25T10:32:45.312Z,11.37
2018-11-25T10:35:13.216Z,10.67
2018-11-25T10:37:41.063Z,9.77
2018-11-25T10:40:12.604Z,12.33
2018-11-25T10:42:40.497Z,11.67
2018-11-25T10:45:09.413Z,11.83
2018-11-25T10:47:37.256Z,10.80
2018-11-25T10:50:05.239Z,11.87
2018-11-25T10:52:33.243Z,10.57
2018-11-25T10:55:01.088Z,9.43
2018-11-25T10:57:28.921Z,8.67
2018-11-25T10:59:56.769Z,9.07
2018-11-25T11:02:29.643Z,8.47
2018-11-25T11:05:02.585Z,8.67
2018-11-25T11:07:35.574Z,9.23
2018-11-25T11:10:03.452Z,9.37
2018-11-25T11:12:31.394Z,9.80
2018-11-25T11:14:59.222Z,9.77
2018-11-25T11:17:27.090Z,9.07
2018-11-25T11:19:54.957Z,9.30
2018-11-25T11:22:22.848Z,9.43
2018-11-25T11:24:51.009Z,9.80
2018-11-25T11:27:18.875Z,10.37
2018-11-25T11:29:46.732Z,9.93
2018-11-25T11:32:14.642Z,10.67
2018-11-25T11:34:42.573Z,9.33
2018-11-25T11:37:10.466Z,9.93
2018-11-25T11:39:38.320Z,9.77
2018-11-25T11:42:06.754Z,10.17
2018-11-25T11:44:35.008Z,10.37
2018-11-25T11:47:02.880Z,9.90
2018-11-25T11:49:30.741Z,10.93
2018-11-25T11:51:58.726Z,10.67
2018-11-25T11:54:26.742Z,10.37
2018-11-25T11:56:54.629Z,11.60
2018-11-25T11:59:22.521Z,10.13
2018-11-25T12:01:50.632Z,11.30
2018-11-25T12:04:19.058Z,10.57
2018-11-25T12:06:46.932Z,10.60
2018-11-25T12:09:14.877Z,11.77
2018-11-25T12:11:42.753Z,11.23
2018-11-25T12:14:10.690Z,10.70
2018-11-25T12:16:38.540Z,12.20
2018-11-25T12:19:06.565Z,12.17
2018-11-25T12:21:34.439Z,11.30
2018-11-25T12:24:02.314Z,11.20
2018-11-25T12:26:30.244Z,11.03
2018-11-25T12:28:58.109Z,11.30
2018-11-25T12:31:25.944Z,10.87
2018-11-25T12:33:53.810Z,10.07
2018-11-25T12:36:21.701Z,10.30
2018-11-25T12:38:49.592Z,9.93
2018-11-25T12:41:17.508Z,9.27
2018-11-25T12:43:45.373Z,8.53
2018-11-25T12:46:13.213Z,8.97
2018-11-25T12:48:41.146Z,8.00
2018-11-25T12:51:09.100Z,6.20
2018-11-25T12:53:36.935Z,4.37
2018-11-25T12:56:05.225Z,3.40
2018-11-25T12:58:33.117Z,3.33
2018-11-25T13:01:00.984Z,2.63
2018-11-25T13:03:28.837Z,2.83
2018-11-25T13:05:56.697Z,3.40
2018-11-25T13:08:24.527Z,2.47
2018-11-25T13:10:52.375Z,2.20
2018-11-25T13:13:20.252Z,2.70
2018-11-25T13:15:48.096Z,2.43
2018-11-25T13:18:15.990Z,2.00
2018-11-25T13:20:43.911Z,2.17
2018-11-25T13:23:11.750Z,2.43
2018-11-25T13:25:39.599Z,2.40
2018-11-25T13:28:07.586Z,2.60
2018-11-25T13:30:35.525Z,2.20
2018-11-25T13:33:03.932Z,2.90
2018-11-25T13:35:32.753Z,4.17
2018-11-25T13:38:00.745Z,3.90
2018-11-25T13:40:28.627Z,3.93
2018-11-25T13:42:56.475Z,4.00
2018-11-25T13:45:24.391Z,3.87
2018-11-25T13:47:52.260Z,3.47
2018-11-25T13:50:20.099Z,3.10
2018-11-25T13:52:47.956Z,3.00
2018-11-25T13:55:17.558Z,2.77
2018-11-25T13:57:45.397Z,2.77
2018-11-25T14:01:16.573Z,2.67
2018-11-25T14:03:44.425Z,2.40
2018-11-25T14:06:13.371Z,2.87
2018-11-25T14:08:41.238Z,3.57
2018-11-25T14:11:09.999Z,5.83
2018-11-25T14:13:37.832Z,4.23
2018-11-25T14:16:07.160Z,2.83
2018-11-25T14:18:34.986Z,2.93
2018-11-25T14:21:02.846Z,3.27
2018-11-25T14:23:30.675Z,4.37
2018-11-25T14:25:59.940Z,5.17
2018-11-25T14:28:27.780Z,3.50
2018-11-25T14:30:55.624Z,3.03
2018-11-25T14:33:23.535Z,3.83
2018-11-25T14:35:51.550Z,3.00
2018-11-25T14:38:19.603Z,2.90
2018-11-25T14:40:47.433Z,2.73
2018-11-25T14:43:15.352Z,2.23
2018-11-25T14:45:43.220Z,2.77
2018-11-25T14:48:11.081Z,4.30
2018-11-25T14:50:38.926Z,2.90
2018-11-25T14:53:06.921Z,2.53
2018-11-25T14:55:34.801Z,2.67
2018-11-25T14:58:02.670Z,3.47
2018-11-25T15:00:30.601Z,3.20
2018-11-25T15:03:00.265Z,2.30
2018-11-25T15:05:29.731Z,3.37
2018-11-25T15:07:57.568Z,2.97
2018-11-25T15:10:25.385Z,3.20
2018-11-25T15:12:53.517Z,2.77
2018-11-25T15:15:21.348Z,2.70
2018-11-25T15:17:49.184Z,2.77
2018-11-25T15:20:17.028Z,2.37
2018-11-25T15:22:45.755Z,2.43
2018-11-25T15:25:16.856Z,4.23
2018-11-25T15:27:44.720Z,26.97
2018-11-25T15:30:12.673Z,9.03
2018-11-25T15:32:40.531Z,4.30
2018-11-25T15:35:09.251Z,4.23
2018-11-25T15:37:37.875Z,3.40
2018-11-25T15:40:07.944Z,2.93
2018-11-25T15:42:35.797Z,4.00
2018-11-25T15:45:03.773Z,3.80
2018-11-25T15:47:31.613Z,3.80
2018-11-25T15:49:59.456Z,3.60
2018-11-25T15:52:27.302Z,3.30
2018-11-25T15:54:55.190Z,3.07
2018-11-25T15:57:23.018Z,3.50
2018-11-25T15:59:50.888Z,3.67
2018-11-25T16:02:18.750Z,5.07
2018-11-25T16:04:46.702Z,5.30
2018-11-25T16:07:14.572Z,3.93
2018-11-25T16:09:42.498Z,4.00
2018-11-25T16:12:10.392Z,3.60
2018-11-25T16:14:38.255Z,3.57
2018-11-25T16:17:06.117Z,3.43
2018-11-25T16:19:33.994Z,3.83
2018-11-25T16:22:01.877Z,3.90
2018-11-25T16:24:29.717Z,3.80
2018-11-25T16:26:57.582Z,4.53
2018-11-25T16:29:26.233Z,4.20
2018-11-25T16:31:54.097Z,4.23
2018-11-25T16:34:21.904Z,4.10
2018-11-25T16:36:49.765Z,6.23
2018-11-25T16:39:17.616Z,19.83
2018-11-25T16:41:45.509Z,16.50
2018-11-25T16:44:13.390Z,12.17
2018-11-25T16:46:41.231Z,6.80
2018-11-25T16:49:09.069Z,6.40
2018-11-25T16:51:36.931Z,7.07
2018-11-25T16:54:04.875Z,5.80
2018-11-25T16:56:32.712Z,5.30
2018-11-25T16:59:00.556Z,6.40
2018-11-25T17:01:28.416Z,7.67
2018-11-25T17:03:56.261Z,7.37
2018-11-25T17:06:24.095Z,5.70
2018-11-25T17:08:51.924Z,4.03
2018-11-25T17:11:19.774Z,4.70
2018-11-25T17:13:47.649Z,4.43
2018-11-25T17:16:15.489Z,4.17
2018-11-25T17:18:43.356Z,5.13
2018-11-25T17:21:11.196Z,6.83
2018-11-25T17:23:39.052Z,11.57
2018-11-25T17:26:06.895Z,10.40
2018-11-25T17:28:34.759Z,9.97
2018-11-25T17:31:02.611Z,9.17
2018-11-25T17:33:30.464Z,8.07
2018-11-25T17:38:32.481Z,9.63
2018-11-25T17:41:00.322Z,8.00
2018-11-25T17:43:28.165Z,8.57
2018-11-25T17:45:56.063Z,7.00
2018-11-25T17:48:23.916Z,6.77
2018-11-25T17:50:51.759Z,7.60
2018-11-25T17:53:20.965Z,7.50
2018-11-25T17:55:47.591Z,8.93
2018-11-25T17:58:15.445Z,7.77
2018-11-25T18:00:45.488Z,7.40
2018-11-25T18:03:18.400Z,8.07
2018-11-25T18:05:46.488Z,7.33
2018-11-25T18:08:14.373Z,8.37
2018-11-25T18:10:42.188Z,8.87
2018-11-25T18:13:10.033Z,7.33
2018-11-25T18:15:37.905Z,7.13
2018-11-25T18:18:09.765Z,7.33
2018-11-25T18:20:43.851Z,7.03
2018-11-25T18:23:11.686Z,6.60
2018-11-25T18:25:39.601Z,6.87
2018-11-25T18:28:07.521Z,6.93
2018-11-25T18:30:35.367Z,6.03
2018-11-25T18:33:03.456Z,6.67
2018-11-25T18:35:31.471Z,6.53
2018-11-25T18:37:59.501Z,7.07
2018-11-25T18:40:27.432Z,7.50
2018-11-25T18:42:56.064Z,7.13
2018-11-25T18:45:23.978Z,5.90
2018-11-25T18:47:51.814Z,5.83
2018-11-25T18:50:20.451Z,5.60
2018-11-25T18:52:50.399Z,5.93
2018-11-25T18:55:17.735Z,7.47
2018-11-25T18:57:45.709Z,5.97
2018-11-25T19:00:46.751Z,5.60
2018-11-25T19:03:14.698Z,8.47
2018-11-25T19:05:42.539Z,8.10
2018-11-25T19:08:10.779Z,7.33
2018-11-25T19:10:38.649Z,6.97
2018-11-25T19:13:06.617Z,6.13
2018-11-25T19:15:34.462Z,6.10
2018-11-25T19:18:02.915Z,6.00
2018-11-25T19:20:30.912Z,5.40
2018-11-25T19:22:59.361Z,4.53
2018-11-25T19:25:27.455Z,5.37
2018-11-25T19:27:56.048Z,5.40
2018-11-25T19:30:26.674Z,5.00
2018-11-25T19:32:52.074Z,5.83
2018-11-25T19:35:20.721Z,5.07
2018-11-25T19:37:49.462Z,5.87
2018-11-25T19:40:18.124Z,5.40
2018-11-25T19:42:46.384Z,5.83
2018-11-25T19:45:17.292Z,5.37
2018-11-25T19:47:45.241Z,11.03
2018-11-25T19:50:14.136Z,14.53
2018-11-25T19:52:42.627Z,13.43
2018-11-25T19:55:10.666Z,18.03
2018-11-25T19:57:38.630Z,7.50
2018-11-25T20:00:11.488Z,10.63
2018-11-25T20:02:39.418Z,11.30
2018-11-25T20:05:08.164Z,11.90
2018-11-25T20:07:36.105Z,9.13
2018-11-25T20:10:04.120Z,8.43
2018-11-25T20:12:37.125Z,10.17
2018-11-25T20:15:05.115Z,8.50
2018-11-25T20:17:32.960Z,7.73
2018-11-25T20:20:00.875Z,8.90
2018-11-25T20:22:28.724Z,5.70
2018-11-25T20:24:56.728Z,5.60
2018-11-25T20:27:29.673Z,6.53
2018-11-25T20:29:57.504Z,6.60
2018-11-25T20:32:30.403Z,6.03
2018-11-25T20:34:58.254Z,6.10
2018-11-25T20:37:26.943Z,6.30
2018-11-25T20:39:54.074Z,6.10
2018-11-25T20:42:21.926Z,6.23
2018-11-25T20:44:49.762Z,6.10
2018-11-25T20:47:17.614Z,6.10
2018-11-25T20:49:45.487Z,5.80
2018-11-25T20:52:18.633Z,6.07
2018-11-25T20:54:46.473Z,6.23
2018-11-25T20:57:14.624Z,7.50
2018-11-25T20:59:42.516Z,8.97
2018-11-25T21:02:10.415Z,8.70
2018-11-25T21:04:38.258Z,7.70
2018-11-25T21:07:06.244Z,7.43
2018-11-25T21:09:34.118Z,8.10
2018-11-25T21:12:02.200Z,8.40
2018-11-25T21:14:30.053Z,8.17
2018-11-25T21:16:57.903Z,8.40
2018-11-25T21:19:25.742Z,7.70
2018-11-25T21:21:53.579Z,8.53
2018-11-25T21:24:21.421Z,7.53
2018-11-25T21:26:49.280Z,7.77
2018-11-25T21:29:17.148Z,8.20
2018-11-25T21:31:44.990Z,9.57
2018-11-25T21:34:12.835Z,8.30
2018-11-25T21:36:40.684Z,8.30
2018-11-25T21:39:09.649Z,8.90
2018-11-25T21:41:37.616Z,8.73
2018-11-25T21:44:05.920Z,8.70
2018-11-25T21:46:33.773Z,8.30
2018-11-25T21:49:01.646Z,9.17
2018-11-25T21:51:29.489Z,8.73
2018-11-25T21:53:57.326Z,7.70
2018-11-25T21:56:25.166Z,7.67
2018-11-25T21:58:53.016Z,8.43
2018-11-25T22:01:21.112Z,8.47
2018-11-25T22:03:48.952Z,8.13
2018-11-25T22:06:16.785Z,8.20
2018-11-25T22:08:44.624Z,8.03
2018-11-25T22:11:12.470Z,9.60
2018-11-25T22:13:40.314Z,7.50
2018-11-25T22:16:08.163Z,7.07
2018-11-25T22:18:36.020Z,7.60
2018-11-25T22:21:03.885Z,7.87
2018-11-25T22:23:31.701Z,7.40
2018-11-25T22:25:59.547Z,7.40
2018-11-25T22:28:27.396Z,8.67
2018-11-25T22:30:55.226Z,8.17
2018-11-25T22:33:23.196Z,8.50
2018-11-25T22:35:51.065Z,9.13
2018-11-25T22:38:18.932Z,9.50
2018-11-25T22:40:46.819Z,8.30
2018-11-25T22:43:14.663Z,9.33
2018-11-25T22:45:42.625Z,9.33
2018-11-25T22:48:10.481Z,8.90
2018-11-25T22:50:38.348Z,9.13
2018-11-25T22:53:06.511Z,8.97
2018-11-25T22:55:34.379Z,9.33
2018-11-25T22:58:02.225Z,9.77
2018-11-25T23:00:32.134Z,10.70
2018-11-25T23:02:59.980Z,10.77
2018-11-25T23:05:33.047Z,10.00
2018-11-25T23:08:01.015Z,9.17
2018-11-25T23:10:28.865Z,9.07
2018-11-25T23:12:56.735Z,9.17
2018-11-25T23:15:24.601Z,9.20
2018-11-25T23:17:52.457Z,9.83
2018-11-25T23:20:20.308Z,10.10
2018-11-25T23:22:48.182Z,10.63
2018-11-25T23:25:16.015Z,9.20
2018-11-25T23:27:43.879Z,9.87
2018-11-25T23:30:12.077Z,9.93
2018-11-25T23:32:39.937Z,9.77
2018-11-25T23:35:11.635Z,8.80
2018-11-25T23:37:40.468Z,8.87
2018-11-25T23:40:09.012Z,8.87
2018-11-25T23:42:36.873Z,9.27
2018-11-25T23:45:05.940Z,9.17
2018-11-25T23:47:33.809Z,10.03
2018-11-25T23:50:01.638Z,8.70
2018-11-25T23:52:29.505Z,8.97
2018-11-25T23:54:57.349Z,8.37
2018-11-25T23:57:25.257Z,8.83
2018-11-25T23:59:53.119Z,8.83
